Cripple Creek, Colorado
Current Conditions -  °F | °C
As of 4:56 AM on Thursday 23 Oct 2014 (Local Time) from KCWN Reporting Station
Clear Clear  
Wind Chill: 50°   Ceiling: Unl
Heat Index: 50°   Visibility: 10mi
Dew Point: 31°   Wind: 3mph
Humidity: 48%   Direction: NA
Pressure: 30.2"   Gusts: NA
Location:  38.75°N, 105.18°W
Report Text: KCWN 231056Z AUTO VRB03KT 10SM CLR 10/M01 A3020 RMK AO2 SLP179 T00991006
Loading
Personal Weather Stations






























Interactive Weather Map
Tropical Storm Tracking
New forecast layout! Learn more

10-Day Weather Forecast

Advertisements
Track Severe Weather on mobile